Terminal Aerodrome Forecast
Issued by NWS

Home | Current Version | Previous Version | Text Only | Print | Product List | Glossary On
Versions: 1 2 3 4 5 6 7 8 9 10 11 12 13 14 15 16 17 18
000
FTUS43 KDMX 180539
TAFFOD
TAF
KFOD 180539Z 1806/1906 VRB05KT P6SM SCT100
     FM181500 16010G16KT P6SM BKN100
     FM190000 16012KT P6SM SKC=

USA.gov is the U.S. government's official web portal to all federal, state and local government web resources and services.